createdAt,value
2022-08-16T00:01:24.555Z,5.25
2022-08-16T00:03:52.495Z,4.93
2022-08-16T00:06:19.854Z,4.60
2022-08-16T00:08:47.806Z,4.50
2022-08-16T00:11:16.599Z,4.93
2022-08-16T00:13:54.366Z,5.35
2022-08-16T00:17:05.423Z,5.07
2022-08-16T00:19:19.550Z,5.22
2022-08-16T00:21:53.187Z,6.38
2022-08-16T00:24:32.492Z,6.43
2022-08-16T00:26:59.942Z,5.75
2022-08-16T00:29:30.003Z,5.28
2022-08-16T00:32:00.955Z,5.47
2022-08-16T00:34:44.812Z,6.13
2022-08-16T00:37:20.910Z,5.25
2022-08-16T00:39:57.502Z,5.10
2022-08-16T00:42:30.528Z,5.22
2022-08-16T00:45:29.288Z,5.15
2022-08-16T00:48:28.834Z,5.93
2022-08-16T00:50:55.500Z,5.68
2022-08-16T00:53:22.369Z,6.13
2022-08-16T00:55:55.234Z,5.68
2022-08-16T00:58:34.756Z,5.35
2022-08-16T01:01:02.688Z,6.25
2022-08-16T01:03:31.681Z,5.40
2022-08-16T01:06:40.125Z,5.93
2022-08-16T01:08:53.652Z,5.60
2022-08-16T01:13:53.193Z,5.82
2022-08-16T01:16:25.817Z,5.45
2022-08-16T01:19:07.530Z,5.38
2022-08-16T01:21:52.290Z,5.45
2022-08-16T01:24:51.665Z,6.57
2022-08-16T01:30:19.941Z,5.30
2022-08-16T01:33:01.580Z,5.45
2022-08-16T01:35:39.677Z,5.28
2022-08-16T01:38:19.986Z,4.97
2022-08-16T01:40:55.018Z,4.95
2022-08-16T01:43:24.532Z,5.10
2022-08-16T01:45:57.698Z,6.05
2022-08-16T01:48:29.418Z,5.55
2022-08-16T01:51:08.509Z,5.25
2022-08-16T01:53:37.971Z,5.82
2022-08-16T01:56:25.422Z,6.03
2022-08-16T02:01:23.353Z,5.82
2022-08-16T02:03:53.237Z,6.20
2022-08-16T02:06:34.659Z,5.90
2022-08-16T02:09:07.239Z,5.55
2022-08-16T02:11:47.847Z,5.20
2022-08-16T02:14:26.251Z,6.18
2022-08-16T02:17:01.702Z,6.22
2022-08-16T02:19:59.729Z,5.80
2022-08-16T02:22:34.356Z,5.70
2022-08-16T02:25:07.211Z,6.00
2022-08-16T02:27:36.496Z,5.32
2022-08-16T02:30:05.894Z,5.47
2022-08-16T02:32:50.735Z,5.35
2022-08-16T02:35:22.904Z,6.20
2022-08-16T02:37:52.701Z,6.03
2022-08-16T02:40:24.669Z,6.25
2022-08-16T02:42:54.333Z,5.28
2022-08-16T02:45:28.021Z,6.13
2022-08-16T02:48:00.361Z,6.18
2022-08-16T02:50:54.573Z,6.60
2022-08-16T02:53:31.046Z,6.38
2022-08-16T02:55:59.132Z,6.43
2022-08-16T02:58:28.256Z,6.78
2022-08-16T03:00:57.835Z,7.15
2022-08-16T03:04:29.214Z,7.47
2022-08-16T03:06:41.543Z,6.57
2022-08-16T03:09:16.430Z,6.18
2022-08-16T03:11:47.847Z,6.38
2022-08-16T03:14:21.082Z,6.20
2022-08-16T03:16:58.694Z,5.85
2022-08-16T03:19:56.516Z,5.88
2022-08-16T03:22:29.096Z,6.75
2022-08-16T03:25:09.055Z,7.78
2022-08-16T03:27:39.209Z,6.60
2022-08-16T03:30:17.320Z,6.28
2022-08-16T03:32:58.413Z,5.40
2022-08-16T03:35:32.695Z,5.95
2022-08-16T03:38:33.052Z,5.60
2022-08-16T03:40:57.728Z,5.28
2022-08-16T03:43:50.982Z,5.25
2022-08-16T03:46:48.162Z,5.50
2022-08-16T03:49:04.828Z,6.38
2022-08-16T03:51:31.418Z,5.75
2022-08-16T03:54:04.147Z,6.32
2022-08-16T03:56:58.040Z,5.40
2022-08-16T03:59:30.094Z,5.50
2022-08-16T04:02:00.987Z,5.70
2022-08-16T04:04:33.504Z,5.38
2022-08-16T04:07:04.293Z,5.00
2022-08-16T04:09:38.215Z,5.57
2022-08-16T04:12:11.320Z,6.10
2022-08-16T04:14:54.416Z,5.30
2022-08-16T04:17:21.669Z,5.28
2022-08-16T04:19:51.700Z,5.00
2022-08-16T04:22:27.674Z,5.47
2022-08-16T04:24:59.750Z,4.90
2022-08-16T04:27:33.108Z,4.88
2022-08-16T04:30:02.802Z,5.75
2022-08-16T04:32:31.775Z,5.32
2022-08-16T04:34:59.512Z,5.05
2022-08-16T04:37:29.128Z,4.68
2022-08-16T04:40:10.781Z,5.38
2022-08-16T04:42:50.466Z,4.85
2022-08-16T04:45:18.360Z,5.22
2022-08-16T04:48:05.874Z,5.63
2022-08-16T04:50:43.474Z,5.20
2022-08-16T04:53:15.867Z,4.47
2022-08-16T04:55:44.971Z,6.38
2022-08-16T04:58:45.225Z,5.55
2022-08-16T05:01:01.422Z,5.40
2022-08-16T05:03:30.982Z,5.70
2022-08-16T05:05:59.825Z,5.65
2022-08-16T05:08:34.157Z,5.35
2022-08-16T05:11:16.781Z,6.30
2022-08-16T05:13:47.539Z,6.35
2022-08-16T05:16:27.108Z,5.78
2022-08-16T05:19:05.029Z,5.22
2022-08-16T05:21:46.405Z,5.38
2022-08-16T05:24:13.347Z,5.43
2022-08-16T05:26:40.880Z,6.03
2022-08-16T05:31:54.082Z,5.78
2022-08-16T05:34:22.321Z,6.80
2022-08-16T05:36:53.012Z,6.10
2022-08-16T05:39:23.763Z,5.50
2022-08-16T05:41:53.130Z,5.93
2022-08-16T05:44:23.958Z,5.85
2022-08-16T05:46:59.963Z,5.72
2022-08-16T05:49:39.403Z,5.50
2022-08-16T05:52:10.872Z,4.80
2022-08-16T05:54:46.027Z,5.50
2022-08-16T05:57:15.662Z,4.90
2022-08-16T05:59:42.512Z,5.10
2022-08-16T06:02:09.938Z,5.18
2022-08-16T06:04:37.925Z,4.22
2022-08-16T06:07:26.695Z,4.68
2022-08-16T06:10:05.100Z,4.82
2022-08-16T06:12:34.737Z,4.45
2022-08-16T06:15:09.947Z,4.60
2022-08-16T06:17:43.268Z,4.97
2022-08-16T06:20:24.219Z,4.60
2022-08-16T06:22:57.751Z,5.05
2022-08-16T06:25:36.771Z,5.72
2022-08-16T06:28:09.489Z,5.50
2022-08-16T06:30:44.063Z,5.25
2022-08-16T06:33:19.650Z,4.82
2022-08-16T06:35:55.033Z,5.35
2022-08-16T06:38:33.696Z,5.10
2022-08-16T06:41:12.324Z,5.65
2022-08-16T06:43:41.684Z,5.78
2022-08-16T06:46:31.698Z,6.35
2022-08-16T06:49:05.496Z,6.20
2022-08-16T06:51:46.626Z,5.80
2022-08-16T06:54:18.926Z,6.07
2022-08-16T06:56:45.805Z,6.20
2022-08-16T06:59:14.520Z,6.20
2022-08-16T07:01:54.085Z,6.28
2022-08-16T07:04:31.786Z,5.70
2022-08-16T07:07:03.030Z,5.55
2022-08-16T07:09:30.795Z,6.10
2022-08-16T07:12:03.238Z,5.90
2022-08-16T07:14:33.770Z,5.88
2022-08-16T07:20:02.747Z,5.55
2022-08-16T07:25:13.858Z,6.40
2022-08-16T07:27:41.444Z,6.22
2022-08-16T07:30:38.394Z,6.30
2022-08-16T07:33:04.551Z,6.45
2022-08-16T07:35:34.298Z,7.20
2022-08-16T07:38:01.181Z,6.93
2022-08-16T07:41:00.780Z,7.13
2022-08-16T07:43:29.751Z,7.57
2022-08-16T07:46:01.570Z,7.38
2022-08-16T07:48:31.206Z,7.50
2022-08-16T07:51:00.318Z,6.88
2022-08-16T07:56:00.559Z,7.88
2022-08-16T07:58:36.198Z,7.93
2022-08-16T08:01:10.318Z,7.05
2022-08-16T08:03:48.217Z,7.50
2022-08-16T08:06:19.670Z,7.22
2022-08-16T08:08:50.541Z,7.63
2022-08-16T08:11:21.528Z,7.15
2022-08-16T08:13:50.579Z,7.25
2022-08-16T08:16:19.945Z,7.82
2022-08-16T08:18:49.988Z,8.55
2022-08-16T08:21:27.330Z,9.00
2022-08-16T08:23:57.720Z,7.40
2022-08-16T08:26:25.267Z,8.45
2022-08-16T08:28:52.647Z,8.27
2022-08-16T08:31:21.410Z,7.55
2022-08-16T08:33:51.492Z,7.45
2022-08-16T08:41:42.542Z,7.90
2022-08-16T08:44:29.854Z,8.05
2022-08-16T08:47:09.254Z,7.43
2022-08-16T08:49:45.972Z,8.13
2022-08-16T08:52:34.996Z,7.57
2022-08-16T08:55:11.003Z,7.95
2022-08-16T08:57:45.638Z,7.03
2022-08-16T09:00:26.873Z,7.40
2022-08-16T09:02:58.612Z,7.68
2022-08-16T09:05:35.837Z,7.07
2022-08-16T09:08:05.971Z,6.43
2022-08-16T09:11:07.378Z,6.05
2022-08-16T09:16:03.360Z,5.30
2022-08-16T09:18:35.416Z,5.28
2022-08-16T09:21:07.138Z,5.80
2022-08-16T09:23:37.561Z,6.32
2022-08-16T09:26:44.844Z,5.43
2022-08-16T09:29:16.242Z,5.63
2022-08-16T09:31:42.068Z,5.10
2022-08-16T09:34:10.451Z,5.10
2022-08-16T09:36:37.519Z,5.05
2022-08-16T09:39:16.270Z,5.10
2022-08-16T09:41:53.183Z,5.63
2022-08-16T09:45:12.314Z,5.53
2022-08-16T09:47:11.038Z,5.43
2022-08-16T09:49:41.006Z,5.60
2022-08-16T09:52:10.051Z,5.07
2022-08-16T09:54:37.967Z,5.68
2022-08-16T09:57:05.010Z,5.30
2022-08-16T09:59:38.607Z,5.53
2022-08-16T10:02:27.178Z,4.93
2022-08-16T10:04:57.298Z,4.88
2022-08-16T10:07:38.362Z,5.07
2022-08-16T10:10:19.203Z,4.38
2022-08-16T10:13:12.312Z,4.70
2022-08-16T10:15:43.746Z,5.13
2022-08-16T10:19:00.304Z,4.85
2022-08-16T10:21:09.469Z,4.57
2022-08-16T10:23:36.683Z,4.63
2022-08-16T10:27:20.626Z,4.95
2022-08-16T10:28:51.880Z,4.28
2022-08-16T10:31:44.317Z,4.22
2022-08-16T10:34:05.790Z,4.78
2022-08-16T10:36:54.199Z,4.60
2022-08-16T10:39:21.218Z,4.32
2022-08-16T10:41:48.019Z,5.00
2022-08-16T10:44:15.172Z,4.53
2022-08-16T10:46:44.327Z,4.93
2022-08-16T10:49:16.832Z,4.60
2022-08-16T10:52:01.405Z,4.65
2022-08-16T10:54:31.005Z,4.30
2022-08-16T10:57:00.543Z,4.47
2022-08-16T10:59:39.147Z,3.95
2022-08-16T11:02:57.653Z,4.43
2022-08-16T11:05:06.771Z,4.50
2022-08-16T11:07:42.975Z,4.07
2022-08-16T11:10:20.411Z,4.78
2022-08-16T11:12:47.779Z,4.32
2022-08-16T11:15:20.318Z,4.50
2022-08-16T11:18:36.654Z,4.45
2022-08-16T11:20:41.235Z,4.38
2022-08-16T11:23:09.907Z,4.05
2022-08-16T11:31:11.106Z,4.20
2022-08-16T11:33:55.625Z,3.67
2022-08-16T11:36:27.966Z,4.47
2022-08-16T11:39:00.165Z,4.43
2022-08-16T11:41:30.813Z,4.43
2022-08-16T11:43:59.590Z,4.03
2022-08-16T11:46:43.415Z,4.40
2022-08-16T11:49:14.121Z,4.50
2022-08-16T11:51:44.091Z,4.10
2022-08-16T11:54:20.755Z,4.27
2022-08-16T11:56:52.647Z,4.40
2022-08-16T11:59:28.468Z,4.18
2022-08-16T12:01:59.910Z,4.15
2022-08-16T12:04:31.700Z,5.55
2022-08-16T12:06:58.774Z,3.90
2022-08-16T12:09:29.512Z,4.25
2022-08-16T12:11:58.494Z,3.97
2022-08-16T12:14:35.297Z,4.45
2022-08-16T12:17:03.578Z,4.00
2022-08-16T12:19:35.462Z,4.15
2022-08-16T12:22:05.618Z,5.13
2022-08-16T12:24:45.378Z,4.18
2022-08-16T12:27:14.602Z,4.45
2022-08-16T12:29:42.004Z,4.25
2022-08-16T12:32:35.748Z,4.97
2022-08-16T12:34:55.370Z,4.47
2022-08-16T12:37:24.343Z,14.23
2022-08-16T12:39:58.429Z,12.18
2022-08-16T12:42:35.481Z,10.02
2022-08-16T12:45:06.540Z,4.90
2022-08-16T12:47:53.244Z,6.45
2022-08-16T12:50:33.006Z,4.38
2022-08-16T12:53:00.503Z,5.63
2022-08-16T12:55:33.678Z,4.25
2022-08-16T12:58:13.537Z,4.30
2022-08-16T13:00:42.181Z,4.13
2022-08-16T13:03:09.588Z,4.13
2022-08-16T13:05:45.143Z,4.03
2022-08-16T13:08:30.840Z,3.72
2022-08-16T13:11:00.665Z,3.72
2022-08-16T13:13:29.557Z,3.80
2022-08-16T13:16:03.651Z,3.47
2022-08-16T13:18:34.217Z,3.65
2022-08-16T13:21:07.738Z,4.10
2022-08-16T13:23:36.818Z,3.75
2022-08-16T13:26:10.778Z,4.65
2022-08-16T13:28:37.387Z,4.30
2022-08-16T13:31:04.399Z,4.30
2022-08-16T13:33:37.067Z,4.07
2022-08-16T13:36:07.276Z,3.97
2022-08-16T13:38:49.353Z,4.15
2022-08-16T13:41:16.079Z,4.40
2022-08-16T13:43:43.033Z,4.20
2022-08-16T13:46:09.683Z,4.35
2022-08-16T13:48:44.428Z,4.40
2022-08-16T13:51:16.715Z,3.65
2022-08-16T13:53:54.224Z,3.92
2022-08-16T13:56:25.779Z,3.97
2022-08-16T13:58:54.735Z,3.85
2022-08-16T14:01:22.573Z,4.50
2022-08-16T14:03:50.392Z,4.25
2022-08-16T14:06:21.675Z,4.03
2022-08-16T14:08:58.841Z,4.35
2022-08-16T14:11:33.515Z,3.83
2022-08-16T14:14:00.444Z,4.55
2022-08-16T14:16:34.089Z,4.03
2022-08-16T14:19:02.134Z,3.90
2022-08-16T14:21:34.988Z,4.15
2022-08-16T14:24:07.902Z,3.65
2022-08-16T14:26:43.863Z,3.67
2022-08-16T14:29:11.137Z,3.90
2022-08-16T14:31:39.671Z,3.85
2022-08-16T14:34:07.774Z,3.67
2022-08-16T14:36:37.897Z,3.75
2022-08-16T14:39:09.075Z,4.07
2022-08-16T14:41:36.642Z,4.30
2022-08-16T14:44:07.040Z,3.80
2022-08-16T14:46:33.747Z,3.65
2022-08-16T14:49:01.631Z,3.45
2022-08-16T14:51:28.854Z,3.63
2022-08-16T14:53:56.833Z,3.72
2022-08-16T14:56:38.654Z,3.65
2022-08-16T14:59:11.058Z,3.58
2022-08-16T15:01:52.149Z,3.90
2022-08-16T15:04:39.832Z,3.40
2022-08-16T15:07:13.976Z,3.33
2022-08-16T15:10:00.993Z,3.45
2022-08-16T15:12:33.282Z,3.28
2022-08-16T15:15:04.535Z,4.10
2022-08-16T15:17:40.324Z,3.30
2022-08-16T15:20:08.605Z,3.40
2022-08-16T15:22:39.355Z,3.70
2022-08-16T15:25:11.069Z,3.67
2022-08-16T15:27:42.070Z,3.33
2022-08-16T15:30:56.739Z,4.45
2022-08-16T15:33:10.036Z,4.10
2022-08-16T15:35:38.609Z,4.75
2022-08-16T15:38:09.101Z,3.67
2022-08-16T15:40:57.897Z,4.00
2022-08-16T15:43:33.968Z,3.75
2022-08-16T15:46:35.768Z,3.95
2022-08-16T15:49:12.704Z,3.50
2022-08-16T15:51:41.345Z,3.70
2022-08-16T15:54:28.961Z,3.20
2022-08-16T15:56:56.367Z,3.70
2022-08-16T15:59:27.096Z,5.00
2022-08-16T16:01:55.973Z,4.95
2022-08-16T16:04:25.788Z,3.72
2022-08-16T16:06:55.347Z,3.97
2022-08-16T16:09:34.608Z,7.87
2022-08-16T16:12:34.075Z,4.25
2022-08-16T16:14:53.019Z,5.45
2022-08-16T16:17:19.645Z,3.30
2022-08-16T16:19:49.765Z,3.40
2022-08-16T16:22:21.154Z,14.25
2022-08-16T16:24:49.214Z,3.60
2022-08-16T16:27:16.637Z,4.15
2022-08-16T16:29:46.426Z,3.40
2022-08-16T16:32:33.226Z,4.00
2022-08-16T16:35:01.181Z,4.28
2022-08-16T16:37:27.831Z,3.85
2022-08-16T16:39:54.656Z,3.85
2022-08-16T16:42:29.330Z,3.63
2022-08-16T16:45:01.612Z,3.42
2022-08-16T16:47:41.444Z,3.70
2022-08-16T16:50:10.242Z,3.45
2022-08-16T16:52:44.265Z,6.75
2022-08-16T16:55:12.864Z,4.30
2022-08-16T16:57:58.261Z,3.80
2022-08-16T17:00:29.760Z,4.85
2022-08-16T17:03:05.670Z,4.13
2022-08-16T17:05:32.777Z,5.30
2022-08-16T17:08:01.889Z,4.25
2022-08-16T17:10:46.434Z,3.70
2022-08-16T17:13:15.366Z,3.83
2022-08-16T17:15:42.044Z,3.72
2022-08-16T17:19:15.349Z,3.88
2022-08-16T17:20:55.569Z,3.78
2022-08-16T17:23:23.279Z,3.63
2022-08-16T17:26:10.697Z,4.10
2022-08-16T17:28:58.503Z,4.18
2022-08-16T17:31:34.745Z,3.72
2022-08-16T17:34:28.843Z,4.10
2022-08-16T17:36:54.362Z,3.50
2022-08-16T17:39:21.222Z,4.40
2022-08-16T17:41:50.821Z,3.35
2022-08-16T17:44:19.276Z,3.67
2022-08-16T17:46:52.272Z,3.30
2022-08-16T17:49:19.692Z,3.28
2022-08-16T17:51:46.317Z,4.30
2022-08-16T17:54:22.130Z,4.03
2022-08-16T17:57:00.752Z,3.92
2022-08-16T17:59:28.938Z,4.10
2022-08-16T18:01:56.194Z,3.95
2022-08-16T18:04:45.251Z,4.03
2022-08-16T18:07:10.813Z,3.38
2022-08-16T18:09:40.833Z,4.03
2022-08-16T18:12:23.976Z,3.88
2022-08-16T18:15:04.490Z,4.13
2022-08-16T18:17:31.987Z,4.00
2022-08-16T18:19:58.603Z,4.57
2022-08-16T18:22:30.660Z,4.20
2022-08-16T18:24:58.037Z,3.92
2022-08-16T18:27:26.786Z,3.97
2022-08-16T18:29:53.906Z,3.85
2022-08-16T18:32:24.548Z,4.03
2022-08-16T18:34:54.449Z,4.47
2022-08-16T18:37:24.798Z,3.78
2022-08-16T18:39:51.537Z,4.07
2022-08-16T18:42:18.343Z,4.07
2022-08-16T18:44:44.983Z,4.15
2022-08-16T18:47:11.804Z,4.22
2022-08-16T18:49:38.839Z,4.13
2022-08-16T18:52:05.909Z,4.28
2022-08-16T18:54:33.906Z,4.60
2022-08-16T18:57:20.475Z,4.15
2022-08-16T18:59:47.095Z,4.10
2022-08-16T19:02:57.891Z,4.63
2022-08-16T19:05:15.174Z,4.57
2022-08-16T19:07:41.865Z,4.13
2022-08-16T19:10:09.318Z,4.88
2022-08-16T19:12:38.071Z,4.45
2022-08-16T19:15:24.083Z,4.43
2022-08-16T19:17:50.634Z,4.65
2022-08-16T19:20:20.685Z,4.40
2022-08-16T19:23:05.071Z,4.50
2022-08-16T19:25:47.925Z,4.95
2022-08-16T19:28:50.732Z,4.90
2022-08-16T19:31:14.958Z,5.43
2022-08-16T19:33:53.172Z,5.07
2022-08-16T19:36:31.245Z,5.18
2022-08-16T19:39:04.945Z,5.38
2022-08-16T19:41:34.172Z,4.85
2022-08-16T19:44:00.772Z,5.00
2022-08-16T19:46:27.480Z,5.40
2022-08-16T19:48:54.100Z,5.57
2022-08-16T19:51:20.694Z,5.25
2022-08-16T19:53:47.351Z,4.78
2022-08-16T19:56:13.971Z,5.03
2022-08-16T19:58:56.187Z,4.72
2022-08-16T20:01:27.148Z,4.53
2022-08-16T20:03:53.756Z,5.28
2022-08-16T20:06:37.594Z,5.45
2022-08-16T20:09:06.090Z,5.68
2022-08-16T20:11:33.063Z,5.10
2022-08-16T20:13:59.673Z,6.68
2022-08-16T20:16:26.384Z,6.40
2022-08-16T20:18:53.037Z,5.40
2022-08-16T20:21:19.779Z,5.60
2022-08-16T20:23:46.648Z,5.53
2022-08-16T20:26:13.326Z,5.25
2022-08-16T20:28:53.492Z,5.90
2022-08-16T20:33:47.921Z,5.60
2022-08-16T20:36:16.037Z,6.60
2022-08-16T20:38:47.020Z,4.88
2022-08-16T20:41:14.732Z,5.20
2022-08-16T20:43:41.354Z,5.32
2022-08-16T20:46:07.991Z,5.22
2022-08-16T20:48:34.635Z,5.15
2022-08-16T20:51:01.291Z,5.50
2022-08-16T20:53:27.953Z,5.80
2022-08-16T20:55:54.608Z,5.97
2022-08-16T20:58:21.192Z,5.80
2022-08-16T21:00:48.012Z,5.55
2022-08-16T21:03:14.823Z,5.68
2022-08-16T21:05:42.023Z,5.93
2022-08-16T21:08:52.714Z,6.10
2022-08-16T21:10:59.282Z,6.57
2022-08-16T21:13:26.060Z,6.13
2022-08-16T21:15:53.063Z,6.43
2022-08-16T21:18:19.685Z,6.10
2022-08-16T21:20:46.434Z,6.32
2022-08-16T21:23:13.126Z,6.25
2022-08-16T21:25:58.332Z,6.35
2022-08-16T21:28:39.907Z,7.15
2022-08-16T21:31:13.112Z,6.88
2022-08-16T21:33:40.267Z,6.90
2022-08-16T21:36:07.148Z,6.43
2022-08-16T21:38:33.736Z,6.75
2022-08-16T21:41:01.751Z,6.18
2022-08-16T21:43:32.138Z,6.22
2022-08-16T21:46:03.592Z,6.25
2022-08-16T21:48:34.451Z,6.50
2022-08-16T21:51:08.838Z,6.90
2022-08-16T21:53:37.809Z,7.93
2022-08-16T21:56:05.318Z,6.10
2022-08-16T21:58:32.369Z,6.40
2022-08-16T22:00:59.673Z,7.53
2022-08-16T22:03:26.328Z,6.75
2022-08-16T22:06:11.758Z,7.15
2022-08-16T22:08:49.082Z,6.95
2022-08-16T22:11:20.510Z,6.47
2022-08-16T22:13:52.799Z,6.85
2022-08-16T22:16:29.943Z,6.55
2022-08-16T22:18:56.693Z,7.40
2022-08-16T22:21:23.389Z,7.60
2022-08-16T22:23:57.199Z,7.32
2022-08-16T22:26:31.869Z,6.88
2022-08-16T22:29:00.831Z,7.63
2022-08-16T22:31:27.802Z,6.43
2022-08-16T22:33:54.934Z,7.05
2022-08-16T22:36:21.542Z,7.25
2022-08-16T22:38:55.896Z,6.85
2022-08-16T22:41:24.239Z,7.10
2022-08-16T22:43:50.851Z,6.72
2022-08-16T22:46:18.700Z,6.90
2022-08-16T22:48:45.782Z,6.65
2022-08-16T22:51:12.412Z,6.57
2022-08-16T22:53:39.067Z,5.72
2022-08-16T22:56:05.882Z,6.25
2022-08-16T22:58:36.708Z,6.25
2022-08-16T23:01:06.442Z,5.65
2022-08-16T23:03:33.383Z,5.95
2022-08-16T23:06:02.891Z,5.57
2022-08-16T23:08:38.555Z,5.55
2022-08-16T23:11:13.294Z,5.65
2022-08-16T23:13:53.034Z,5.40
2022-08-16T23:16:33.810Z,5.40
2022-08-16T23:19:09.822Z,6.00
2022-08-16T23:21:39.050Z,5.88
2022-08-16T23:24:07.274Z,6.18
2022-08-16T23:26:43.883Z,6.25
2022-08-16T23:29:24.085Z,7.18
2022-08-16T23:31:56.276Z,6.93
2022-08-16T23:34:23.873Z,6.75
2022-08-16T23:36:50.526Z,6.95
2022-08-16T23:39:17.154Z,6.88
2022-08-16T23:41:44.502Z,7.28
2022-08-16T23:44:55.408Z,7.63
2022-08-16T23:46:57.719Z,7.75
2022-08-16T23:49:57.261Z,7.38
2022-08-16T23:52:11.220Z,8.05
2022-08-16T23:54:37.836Z,8.85
2022-08-16T23:57:05.040Z,7.30
2022-08-16T23:59:36.727Z,7.70
